createdAt,value
2022-10-25T00:01:21.042Z,45442.19
2022-10-25T00:03:47.565Z,45446.19
2022-10-25T00:06:14.296Z,45446.19
2022-10-25T00:08:40.776Z,45446.19
2022-10-25T00:11:08.548Z,45450.19
2022-10-25T00:13:35.037Z,45452.19
2022-10-25T00:16:01.743Z,45438.19
2022-10-25T00:18:28.140Z,45466.19
2022-10-25T00:20:54.963Z,45450.19
2022-10-25T00:23:21.411Z,45448.19
2022-10-25T00:25:47.785Z,45436.19
2022-10-25T00:28:14.187Z,45438.19
2022-10-25T00:30:40.693Z,45426.22
2022-10-25T00:33:07.081Z,45430.22
2022-10-25T00:35:36.217Z,45452.19
2022-10-25T00:38:02.727Z,45446.19
2022-10-25T00:40:29.268Z,45438.19
2022-10-25T00:42:55.696Z,45448.19
2022-10-25T00:45:27.444Z,45456.19
2022-10-25T00:47:56.619Z,45450.19
2022-10-25T00:50:29.096Z,45442.19
2022-10-25T00:52:59.556Z,45444.19
2022-10-25T00:55:27.555Z,45438.19
2022-10-25T00:57:59.583Z,45448.19
2022-10-25T01:00:25.970Z,45458.19
2022-10-25T01:02:53.569Z,45414.22
2022-10-25T01:05:20.746Z,45456.19
2022-10-25T01:07:47.846Z,45438.19
2022-10-25T01:10:14.384Z,45446.19
2022-10-25T01:12:40.890Z,45446.19
2022-10-25T01:19:45.673Z,45438.19
2022-10-25T01:22:21.464Z,45438.19
2022-10-25T01:25:06.139Z,45442.19
2022-10-25T01:27:50.552Z,45446.19
2022-10-25T01:30:47.695Z,45422.22
2022-10-25T01:33:27.145Z,45448.19
2022-10-25T01:36:06.474Z,45444.19
2022-10-25T01:38:48.357Z,45438.19
2022-10-25T01:41:40.498Z,45450.19
2022-10-25T01:44:38.077Z,45454.19
2022-10-25T01:47:13.462Z,45436.19
2022-10-25T01:50:05.386Z,45440.19
2022-10-25T01:52:31.780Z,45438.19
2022-10-25T01:54:58.214Z,45432.19
2022-10-25T01:58:10.831Z,45438.19
2022-10-25T02:01:02.502Z,45434.19
2022-10-25T02:03:40.299Z,45440.19
2022-10-25T02:06:16.617Z,45434.19
2022-10-25T02:08:49.651Z,45438.19
2022-10-25T02:11:26.420Z,45446.19
2022-10-25T02:14:01.826Z,45436.19
2022-10-25T02:16:36.105Z,45446.19
2022-10-25T02:19:06.444Z,45454.19
2022-10-25T02:21:36.146Z,45438.19
2022-10-25T02:24:09.075Z,45450.19
2022-10-25T02:26:36.591Z,45444.19
2022-10-25T02:29:06.946Z,45426.22
2022-10-25T02:31:36.165Z,45438.19
2022-10-25T02:34:03.472Z,45438.19
2022-10-25T02:36:30.089Z,45430.22
2022-10-25T02:38:58.069Z,45440.19
2022-10-25T02:41:24.682Z,45446.19
2022-10-25T02:43:51.227Z,45466.19
2022-10-25T02:46:20.467Z,45450.19
2022-10-25T02:48:47.673Z,45444.19
2022-10-25T02:51:14.841Z,45422.22
2022-10-25T02:53:41.758Z,45422.22
2022-10-25T02:56:12.452Z,45432.19
2022-10-25T02:58:40.812Z,45430.22
2022-10-25T03:01:07.715Z,45438.19
2022-10-25T03:03:34.940Z,45454.19
2022-10-25T03:06:01.524Z,45430.22
2022-10-25T03:11:00.105Z,45446.19
2022-10-25T03:13:26.675Z,45434.19
2022-10-25T03:15:53.061Z,45442.19
2022-10-25T03:18:19.491Z,45414.22
2022-10-25T03:20:45.893Z,45414.22
2022-10-25T03:23:12.343Z,45438.19
2022-10-25T03:25:39.193Z,45438.19
2022-10-25T03:28:05.613Z,45436.19
2022-10-25T03:30:32.770Z,45440.19
2022-10-25T03:32:59.703Z,45424.22
2022-10-25T03:35:26.873Z,45432.19
2022-10-25T03:37:54.057Z,45446.19
2022-10-25T03:40:21.373Z,45418.22
2022-10-25T03:42:47.720Z,45446.19
2022-10-25T03:45:14.162Z,45444.19
2022-10-25T03:47:40.524Z,45434.19
2022-10-25T03:50:08.118Z,45428.22
2022-10-25T03:52:35.058Z,45446.19
2022-10-25T03:55:01.867Z,45418.22
2022-10-25T03:57:28.344Z,45438.19
2022-10-25T03:59:54.947Z,45440.19
2022-10-25T04:02:21.310Z,45440.19
2022-10-25T04:04:47.717Z,45442.19
2022-10-25T04:07:14.125Z,45438.19
2022-10-25T04:09:40.668Z,45434.19
2022-10-25T04:12:07.139Z,45434.19
2022-10-25T04:14:33.565Z,45434.19
2022-10-25T04:16:59.936Z,45434.19
2022-10-25T04:19:26.345Z,45434.19
2022-10-25T04:21:52.746Z,45442.19
2022-10-25T04:24:19.127Z,45438.19
2022-10-25T04:26:45.505Z,45438.19
2022-10-25T04:29:11.977Z,45422.22
2022-10-25T04:31:38.360Z,45442.19
2022-10-25T04:34:04.844Z,45446.19
2022-10-25T04:36:31.521Z,45450.19
2022-10-25T04:38:57.916Z,45434.19
2022-10-25T04:41:24.492Z,45430.22
2022-10-25T04:43:52.186Z,45434.19
2022-10-25T04:46:19.489Z,45436.19
2022-10-25T04:48:46.371Z,45430.22
2022-10-25T04:51:13.229Z,45436.19
2022-10-25T04:53:39.698Z,45426.22
2022-10-25T04:56:09.816Z,45448.19
2022-10-25T04:58:36.828Z,45434.19
2022-10-25T05:01:08.932Z,45428.22
2022-10-25T05:03:35.732Z,45434.19
2022-10-25T05:06:10.024Z,45436.19
2022-10-25T05:08:39.962Z,45444.19
2022-10-25T05:11:07.536Z,45442.19
2022-10-25T05:13:36.299Z,45458.19
2022-10-25T05:16:03.639Z,45454.19
2022-10-25T05:18:32.552Z,45450.19
2022-10-25T05:21:01.501Z,45438.19
2022-10-25T05:23:28.524Z,45450.19
2022-10-25T05:26:15.697Z,45438.19
2022-10-25T05:28:43.997Z,45438.19
2022-10-25T05:31:22.290Z,45450.19
2022-10-25T05:33:50.676Z,45460.19
2022-10-25T05:36:17.905Z,45450.19
2022-10-25T05:38:44.557Z,45452.19
2022-10-25T05:41:12.762Z,45450.19
2022-10-25T05:43:40.044Z,45452.19
2022-10-25T05:46:11.758Z,45444.19
2022-10-25T05:48:38.965Z,45454.19
2022-10-25T05:51:32.876Z,45442.19
2022-10-25T05:54:09.289Z,45454.19
2022-10-25T05:56:36.648Z,45448.19
2022-10-25T05:59:09.554Z,45454.19
2022-10-25T06:01:37.556Z,45434.19
2022-10-25T06:04:04.524Z,45438.19
2022-10-25T06:06:30.904Z,45444.19
2022-10-25T06:08:58.889Z,45442.19
2022-10-25T06:11:26.575Z,45426.22
2022-10-25T06:13:53.403Z,45438.19
2022-10-25T06:16:20.990Z,45432.19
2022-10-25T06:18:47.712Z,45436.19
2022-10-25T06:21:17.132Z,45458.19
2022-10-25T06:23:44.216Z,45454.19
2022-10-25T06:26:13.482Z,45454.19
2022-10-25T06:28:40.403Z,45446.19
2022-10-25T06:31:12.134Z,45446.19
2022-10-25T06:33:39.193Z,45442.19
2022-10-25T06:36:07.667Z,45452.19
2022-10-25T06:38:34.146Z,45454.19
2022-10-25T06:41:02.114Z,45444.19
2022-10-25T06:43:29.544Z,45446.19
2022-10-25T06:45:56.152Z,45458.19
2022-10-25T06:48:23.045Z,45446.19
2022-10-25T06:51:00.093Z,45452.19
2022-10-25T06:53:26.981Z,45442.19
2022-10-25T06:55:53.342Z,45454.19
2022-10-25T06:58:19.734Z,45456.19
2022-10-25T07:00:48.877Z,45458.19
2022-10-25T07:03:16.190Z,45450.19
2022-10-25T07:05:42.531Z,45454.19
2022-10-25T07:08:08.904Z,45450.19
2022-10-25T07:10:35.259Z,45468.19
2022-10-25T07:13:01.639Z,45446.19
2022-10-25T07:15:28.021Z,45450.19
2022-10-25T07:17:55.221Z,45446.19
2022-10-25T07:20:21.579Z,45464.19
2022-10-25T07:22:49.285Z,45440.19
2022-10-25T07:25:15.781Z,45468.19
2022-10-25T07:27:42.185Z,45448.19
2022-10-25T07:30:09.235Z,45472.16
2022-10-25T07:32:40.020Z,45446.19
2022-10-25T07:35:08.437Z,45454.19
2022-10-25T07:37:34.825Z,45434.19
2022-10-25T07:40:01.277Z,45450.19
2022-10-25T07:42:27.652Z,45442.19
2022-10-25T07:44:54.063Z,45462.19
2022-10-25T07:47:20.480Z,45438.19
2022-10-25T07:49:46.828Z,45452.19
2022-10-25T07:52:13.844Z,45456.19
2022-10-25T07:54:40.268Z,45454.19
2022-10-25T07:57:06.703Z,45442.19
2022-10-25T07:59:33.072Z,45432.19
2022-10-25T08:01:59.429Z,45450.19
2022-10-25T08:04:25.957Z,45424.22
2022-10-25T08:06:52.613Z,45452.19
2022-10-25T08:09:36.839Z,45434.19
2022-10-25T08:12:04.667Z,45430.22
2022-10-25T08:14:32.953Z,45430.22
2022-10-25T08:17:01.499Z,45434.19
2022-10-25T08:19:27.895Z,45434.19
2022-10-25T08:21:54.280Z,45438.19
2022-10-25T08:26:52.060Z,45434.19
2022-10-25T08:29:18.541Z,45424.22
2022-10-25T08:31:44.947Z,45434.19
2022-10-25T08:36:42.664Z,45430.22
2022-10-25T08:39:09.174Z,45428.22
2022-10-25T08:41:42.897Z,45436.19
2022-10-25T08:44:15.251Z,45418.22
2022-10-25T08:47:07.834Z,45434.19
2022-10-25T08:49:53.734Z,45412.22
2022-10-25T08:52:32.075Z,45394.22
2022-10-25T08:55:04.705Z,45418.22
2022-10-25T08:57:37.970Z,45426.22
2022-10-25T09:00:11.100Z,45410.22
2022-10-25T09:02:52.870Z,45418.22
2022-10-25T09:05:42.102Z,45406.22
2022-10-25T09:08:20.629Z,45432.19
2022-10-25T09:11:16.279Z,45420.22
2022-10-25T09:14:32.281Z,45426.22
2022-10-25T09:17:14.665Z,45414.22
2022-10-25T09:20:11.301Z,45416.22
2022-10-25T09:23:00.731Z,45418.22
2022-10-25T09:26:23.272Z,45420.22
2022-10-25T09:29:05.318Z,45434.19
2022-10-25T09:31:39.293Z,45410.22
2022-10-25T09:34:09.467Z,45402.22
2022-10-25T09:36:45.057Z,45388.25
2022-10-25T09:39:20.749Z,45394.22
2022-10-25T09:41:51.474Z,45398.22
2022-10-25T09:44:40.765Z,45398.22
2022-10-25T09:47:41.141Z,45402.22
2022-10-25T09:50:21.788Z,45398.22
2022-10-25T09:53:16.471Z,45376.25
2022-10-25T09:55:51.838Z,45410.22
2022-10-25T09:58:30.430Z,45390.25
2022-10-25T10:01:06.135Z,45394.22
2022-10-25T10:03:35.622Z,45402.22
2022-10-25T10:06:08.854Z,45386.25
2022-10-25T10:08:36.174Z,45390.25
2022-10-25T10:11:04.774Z,45366.25
2022-10-25T10:13:36.158Z,45402.22
2022-10-25T10:16:18.902Z,45406.22
2022-10-25T10:18:45.380Z,45384.25
2022-10-25T10:21:11.675Z,45386.25
2022-10-25T10:23:44.073Z,45408.22
2022-10-25T10:26:21.688Z,45384.25
2022-10-25T10:28:51.212Z,45398.22
2022-10-25T10:31:19.337Z,45378.25
2022-10-25T10:33:50.363Z,45398.22
2022-10-25T10:36:21.245Z,45384.25
2022-10-25T10:38:47.885Z,45402.22
2022-10-25T10:41:41.695Z,45386.25
2022-10-25T10:44:14.972Z,45374.25
2022-10-25T10:46:46.411Z,45386.25
2022-10-25T10:49:14.902Z,45386.25
2022-10-25T10:51:44.927Z,45378.25
2022-10-25T10:54:26.933Z,45394.22
2022-10-25T10:56:59.314Z,45370.25
2022-10-25T10:59:43.655Z,45370.25
2022-10-25T11:02:32.415Z,45370.25
2022-10-25T11:04:59.087Z,45370.25
2022-10-25T11:07:35.791Z,45354.25
2022-10-25T11:10:17.281Z,45354.25
2022-10-25T11:12:44.402Z,45358.25
2022-10-25T11:15:14.877Z,45330.28
2022-10-25T11:17:59.715Z,45314.28
2022-10-25T11:21:05.157Z,45338.28
2022-10-25T11:23:58.807Z,45330.28
2022-10-25T11:26:37.007Z,45306.31
2022-10-25T11:30:01.413Z,45318.28
2022-10-25T11:33:25.106Z,45310.31
2022-10-25T11:36:31.918Z,45316.28
2022-10-25T11:39:52.400Z,45316.28
2022-10-25T11:42:29.445Z,45314.28
2022-10-25T11:45:32.212Z,45310.31
2022-10-25T11:48:17.208Z,45324.28
2022-10-25T11:50:50.513Z,45338.28
2022-10-25T11:53:25.690Z,45330.28
2022-10-25T11:55:58.510Z,45320.28
2022-10-25T11:58:57.540Z,45314.28
2022-10-25T12:01:48.379Z,45310.31
2022-10-25T12:04:59.177Z,45322.28
2022-10-25T12:07:33.692Z,45324.28
2022-10-25T12:10:29.648Z,45322.28
2022-10-25T12:13:04.175Z,45314.28
2022-10-25T12:15:41.774Z,45312.31
2022-10-25T12:18:16.281Z,45304.31
2022-10-25T12:20:45.818Z,45302.31
2022-10-25T12:23:17.216Z,45326.28
2022-10-25T12:25:48.357Z,45306.31
2022-10-25T12:28:29.134Z,45306.31
2022-10-25T12:31:05.984Z,45300.31
2022-10-25T12:33:46.262Z,45310.31
2022-10-25T12:36:30.787Z,45346.28
2022-10-25T12:39:00.828Z,45330.28
2022-10-25T12:41:36.064Z,45326.28
2022-10-25T12:44:02.378Z,45342.28
2022-10-25T12:46:38.053Z,45338.28
2022-10-25T12:49:28.885Z,45338.28
2022-10-25T12:52:28.452Z,45338.28
2022-10-25T12:55:16.694Z,45318.28
2022-10-25T12:58:07.237Z,45324.28
2022-10-25T13:00:46.923Z,45326.28
2022-10-25T13:03:38.034Z,45326.28
2022-10-25T13:06:22.187Z,45342.28
2022-10-25T13:08:49.256Z,45336.28
2022-10-25T13:11:15.934Z,45346.28
2022-10-25T13:13:54.085Z,45350.28
2022-10-25T13:16:25.562Z,45334.28
2022-10-25T13:19:42.366Z,45346.28
2022-10-25T13:22:12.389Z,45342.28
2022-10-25T13:24:45.660Z,45322.28
2022-10-25T13:27:11.967Z,45328.28
2022-10-25T13:30:00.813Z,45326.28
2022-10-25T13:32:29.953Z,45316.28
2022-10-25T13:34:59.564Z,45320.28
2022-10-25T13:37:31.956Z,45314.28
2022-10-25T13:40:19.454Z,45318.28
2022-10-25T13:42:48.549Z,45298.31
2022-10-25T13:45:38.101Z,45302.31
2022-10-25T13:48:13.505Z,45290.31
2022-10-25T13:51:02.402Z,45302.31
2022-10-25T13:53:40.544Z,45298.31
2022-10-25T13:56:12.429Z,45306.31
2022-10-25T13:58:45.309Z,45314.28
2022-10-25T14:01:17.865Z,45322.28
2022-10-25T14:04:23.691Z,45310.31
2022-10-25T14:06:50.095Z,45314.28
2022-10-25T14:09:34.889Z,45310.31
2022-10-25T14:12:01.205Z,45320.28
2022-10-25T14:14:36.186Z,45314.28
2022-10-25T14:17:18.826Z,45324.28
2022-10-25T14:19:51.604Z,45322.28
2022-10-25T14:22:30.386Z,45326.28
2022-10-25T14:25:18.961Z,45332.28
2022-10-25T14:27:45.420Z,45334.28
2022-10-25T14:30:24.934Z,45322.28
2022-10-25T14:32:56.856Z,45338.28
2022-10-25T14:35:25.978Z,45318.28
2022-10-25T14:37:52.425Z,45326.28
2022-10-25T14:40:25.314Z,45340.28
2022-10-25T14:42:54.428Z,45338.28
2022-10-25T14:45:25.138Z,45330.28
2022-10-25T14:47:51.652Z,45346.28
2022-10-25T14:50:23.765Z,45338.28
2022-10-25T14:52:51.452Z,45346.28
2022-10-25T14:55:38.153Z,45358.25
2022-10-25T14:58:04.682Z,45352.28
2022-10-25T15:00:31.201Z,45334.28
2022-10-25T15:03:04.344Z,45342.28
2022-10-25T15:05:30.779Z,45346.28
2022-10-25T15:07:59.994Z,45358.25
2022-10-25T15:10:41.436Z,45354.25
2022-10-25T15:13:19.817Z,45338.28
2022-10-25T15:15:48.774Z,45338.28
2022-10-25T15:18:28.185Z,45344.28
2022-10-25T15:21:10.267Z,45330.28
2022-10-25T15:23:38.135Z,45336.28
2022-10-25T15:26:23.676Z,45354.25
2022-10-25T15:28:54.309Z,45372.25
2022-10-25T15:31:24.824Z,45344.28
2022-10-25T15:34:04.897Z,45346.28
2022-10-25T15:36:33.509Z,45356.25
2022-10-25T15:39:12.856Z,45362.25
2022-10-25T15:41:42.275Z,45344.28
2022-10-25T15:44:08.686Z,45350.28
2022-10-25T15:46:35.101Z,45356.25
2022-10-25T15:49:06.519Z,45356.25
2022-10-25T15:51:34.394Z,45360.25
2022-10-25T15:54:00.848Z,45362.25
2022-10-25T15:56:27.318Z,45346.28
2022-10-25T15:58:53.741Z,45376.25
2022-10-25T16:01:21.423Z,45368.25
2022-10-25T16:03:48.002Z,45370.25
2022-10-25T16:06:14.781Z,45354.25
2022-10-25T16:08:41.955Z,45364.25
2022-10-25T16:11:15.379Z,45360.25
2022-10-25T16:13:43.096Z,45374.25
2022-10-25T16:16:38.887Z,45366.25
2022-10-25T16:19:05.860Z,45378.25
2022-10-25T16:21:32.228Z,45374.25
2022-10-25T16:23:58.598Z,45358.25
2022-10-25T16:26:34.962Z,45390.25
2022-10-25T16:29:01.360Z,45380.25
2022-10-25T16:31:27.936Z,45372.25
2022-10-25T16:33:54.640Z,45376.25
2022-10-25T16:36:21.019Z,45374.25
2022-10-25T16:38:48.097Z,45372.25
2022-10-25T16:41:25.970Z,45390.25
2022-10-25T16:43:52.383Z,45378.25
2022-10-25T16:46:18.764Z,45370.25
2022-10-25T16:48:45.181Z,45390.25
2022-10-25T16:51:16.473Z,45382.25
2022-10-25T16:53:43.753Z,45392.22
2022-10-25T16:56:11.344Z,45406.22
2022-10-25T16:58:38.560Z,45402.22
2022-10-25T17:01:15.722Z,45390.25
2022-10-25T17:03:43.824Z,45410.22
2022-10-25T17:06:22.467Z,45380.25
2022-10-25T17:08:56.880Z,45394.22
2022-10-25T17:11:23.248Z,45414.22
2022-10-25T17:13:49.622Z,45424.22
2022-10-25T17:16:16.431Z,45424.22
2022-10-25T17:18:42.947Z,45420.22
2022-10-25T17:21:12.318Z,45412.22
2022-10-25T17:23:39.696Z,45438.19
2022-10-25T17:26:06.930Z,45426.22
2022-10-25T17:28:34.453Z,45422.22
2022-10-25T17:31:01.757Z,45430.22
2022-10-25T17:33:28.390Z,45426.22
2022-10-25T17:35:56.062Z,45430.22
2022-10-25T17:38:22.556Z,45434.19
2022-10-25T17:40:48.929Z,45414.22
2022-10-25T17:43:16.438Z,45446.19
2022-10-25T17:45:43.693Z,45426.22
2022-10-25T17:48:10.107Z,45426.22
2022-10-25T17:50:40.803Z,45434.19
2022-10-25T17:53:09.097Z,45458.19
2022-10-25T17:55:40.854Z,45450.19
2022-10-25T17:58:07.517Z,45442.19
2022-10-25T18:00:35.646Z,45446.19
2022-10-25T18:03:03.951Z,45450.19
2022-10-25T18:05:30.503Z,45450.19
2022-10-25T18:07:56.905Z,45438.19
2022-10-25T18:10:23.377Z,45454.19
2022-10-25T18:12:50.222Z,45450.19
2022-10-25T18:15:17.156Z,45450.19
2022-10-25T18:17:46.129Z,45454.19
2022-10-25T18:20:13.295Z,45460.19
2022-10-25T18:22:39.689Z,45474.16
2022-10-25T18:25:06.784Z,45466.19
2022-10-25T18:27:33.172Z,45466.19
2022-10-25T18:29:59.543Z,45458.19
2022-10-25T18:32:32.210Z,45468.19
2022-10-25T18:35:01.753Z,45482.16
2022-10-25T18:37:28.154Z,45474.16
2022-10-25T18:39:54.595Z,45478.16
2022-10-25T18:42:21.248Z,45464.19
2022-10-25T18:44:47.655Z,45474.16
2022-10-25T18:47:14.011Z,45474.16
2022-10-25T18:49:40.423Z,45498.16
2022-10-25T18:52:06.776Z,45474.16
2022-10-25T18:54:33.178Z,45504.16
2022-10-25T18:56:59.551Z,45494.16
2022-10-25T18:59:25.916Z,45460.19
2022-10-25T19:01:52.359Z,45482.16
2022-10-25T19:04:18.879Z,45486.16
2022-10-25T19:06:45.393Z,45478.16
2022-10-25T19:09:14.214Z,45478.16
2022-10-25T19:11:40.623Z,45498.16
2022-10-25T19:14:07.305Z,45480.16
2022-10-25T19:16:35.784Z,45480.16
2022-10-25T19:19:04.073Z,45488.16
2022-10-25T19:21:30.463Z,45500.16
2022-10-25T19:23:56.993Z,45510.16
2022-10-25T19:26:23.468Z,45494.16
2022-10-25T19:28:58.714Z,45494.16
2022-10-25T19:31:26.099Z,45490.16
2022-10-25T19:33:53.255Z,45492.16
2022-10-25T19:36:20.257Z,45490.16
2022-10-25T19:38:48.678Z,45498.16
2022-10-25T19:41:17.359Z,45508.16
2022-10-25T19:43:44.402Z,45502.16
2022-10-25T19:46:11.424Z,45524.13
2022-10-25T19:48:37.864Z,45522.13
2022-10-25T19:51:06.536Z,45502.16
2022-10-25T19:53:33.069Z,45498.16
2022-10-25T19:55:59.844Z,45498.16
2022-10-25T19:58:26.619Z,45504.16
2022-10-25T20:01:01.492Z,45510.16
2022-10-25T20:03:28.872Z,45498.16
2022-10-25T20:06:00.398Z,45504.16
2022-10-25T20:08:27.150Z,45506.16
2022-10-25T20:10:53.898Z,45500.16
2022-10-25T20:13:21.539Z,45526.13
2022-10-25T20:15:52.620Z,45530.13
2022-10-25T20:18:19.839Z,45502.16
2022-10-25T20:20:51.706Z,45502.16
2022-10-25T20:23:20.160Z,45494.16
2022-10-25T20:25:46.524Z,45502.16
2022-10-25T20:28:12.971Z,45518.13
2022-10-25T20:30:39.644Z,45510.16
2022-10-25T20:33:06.936Z,45496.16
2022-10-25T20:35:41.109Z,45518.13
2022-10-25T20:38:11.674Z,45498.16
2022-10-25T20:40:38.875Z,45504.16
2022-10-25T20:43:06.101Z,45514.13
2022-10-25T20:45:33.115Z,45516.13
2022-10-25T20:48:00.052Z,45496.16
2022-10-25T20:50:27.749Z,45490.16
2022-10-25T20:53:10.729Z,45508.16
2022-10-25T20:55:38.243Z,45502.16
2022-10-25T20:58:05.029Z,45512.16
2022-10-25T21:00:32.255Z,45498.16
2022-10-25T21:02:59.393Z,45516.13
2022-10-25T21:05:25.794Z,45502.16
2022-10-25T21:07:52.185Z,45514.13
2022-10-25T21:10:18.629Z,45494.16
2022-10-25T21:12:45.005Z,45510.16
2022-10-25T21:15:12.252Z,45510.16
2022-10-25T21:17:39.032Z,45524.13
2022-10-25T21:20:06.018Z,45502.16
2022-10-25T21:22:32.406Z,45496.16
2022-10-25T21:24:58.890Z,45518.13
2022-10-25T21:27:25.351Z,45516.13
2022-10-25T21:29:51.710Z,45500.16
2022-10-25T21:32:18.090Z,45502.16
2022-10-25T21:34:44.502Z,45526.13
2022-10-25T21:37:10.847Z,45512.16
2022-10-25T21:39:37.237Z,45506.16
2022-10-25T21:42:03.811Z,45506.16
2022-10-25T21:44:30.202Z,45516.13
2022-10-25T21:46:56.662Z,45530.13
2022-10-25T21:49:23.061Z,45528.13
2022-10-25T21:51:49.415Z,45498.16
2022-10-25T21:54:15.951Z,45504.16
2022-10-25T21:56:42.416Z,45510.16
2022-10-25T21:59:08.796Z,45514.13
2022-10-25T22:01:35.265Z,45506.16
2022-10-25T22:04:01.766Z,45518.13
2022-10-25T22:06:28.232Z,45490.16
2022-10-25T22:08:55.514Z,45514.13
2022-10-25T22:11:23.266Z,45486.16
2022-10-25T22:13:58.278Z,45518.13
2022-10-25T22:16:25.282Z,45518.13
2022-10-25T22:19:00.288Z,45512.16
2022-10-25T22:21:28.888Z,45512.16
2022-10-25T22:23:55.315Z,45510.16
2022-10-25T22:26:22.383Z,45514.13
2022-10-25T22:28:53.820Z,45506.16
2022-10-25T22:31:21.314Z,45538.13
2022-10-25T22:33:52.755Z,45524.13
2022-10-25T22:36:20.408Z,45518.13
2022-10-25T22:38:47.616Z,45506.16
2022-10-25T22:41:19.511Z,45506.16
2022-10-25T22:43:46.969Z,45518.13
2022-10-25T22:46:16.481Z,45516.13
2022-10-25T22:48:44.423Z,45510.16
2022-10-25T22:51:12.143Z,45508.16
2022-10-25T22:53:38.889Z,45520.13
2022-10-25T22:56:06.839Z,45520.13
2022-10-25T22:58:35.284Z,45512.16
2022-10-25T23:01:09.965Z,45514.13
2022-10-25T23:03:39.376Z,45522.13
2022-10-25T23:06:09.185Z,45510.16
2022-10-25T23:08:35.596Z,45518.13
2022-10-25T23:11:05.124Z,45524.13
2022-10-25T23:13:33.062Z,45510.16
2022-10-25T23:15:59.719Z,45528.13
2022-10-25T23:18:26.443Z,45538.13
2022-10-25T23:20:57.569Z,45506.16
2022-10-25T23:23:24.924Z,45526.13
2022-10-25T23:25:51.681Z,45512.16
2022-10-25T23:28:18.532Z,45524.13
2022-10-25T23:30:44.978Z,45534.13
2022-10-25T23:33:12.524Z,45530.13
2022-10-25T23:35:41.141Z,45514.13
2022-10-25T23:38:11.395Z,45526.13
2022-10-25T23:40:38.487Z,45520.13
2022-10-25T23:43:04.913Z,45506.16
2022-10-25T23:45:32.204Z,45504.16
2022-10-25T23:47:58.772Z,45506.16
2022-10-25T23:50:25.216Z,45522.13
2022-10-25T23:52:51.754Z,45508.16
2022-10-25T23:55:18.236Z,45514.13
2022-10-25T23:57:44.681Z,45506.16
